Time;durP1;ratioP1;P1;durP2;ratioP2;P2;SDS_P1;SDS_P2;PMS_P1;PMS_P2;Temp;Humidity;BMP_temperature;BMP_pressure;BME280_temperature;BME280_humidity;BME280_pressure;Samples;Min_cycle;Max_cycle;Signal;HPM_P1;HPM_P2
2022/08/28 00:00:39;;;;;;;16.60;7.78;;;;;;;22.17;47.77;100076.86;1745923;80;21086;-65
2022/08/28 00:03:05;;;;;;;15.83;7.40;;;;;;;22.19;47.48;100078.00;1708670;82;21117;-65
2022/08/28 00:05:32;;;;;;;14.90;7.33;;;;;;;22.19;47.50;100082.02;1750176;81;21030;-64
2022/08/28 00:07:59;;;;;;;22.87;7.95;;;;;;;22.20;47.64;100091.72;1749068;81;21125;-63
2022/08/28 00:10:26;;;;;;;16.65;7.83;;;;;;;22.21;47.53;100091.52;1710969;83;21133;-63
2022/08/28 00:12:54;;;;;;;19.05;7.97;;;;;;;22.23;47.78;100091.31;1746296;82;21117;-65
2022/08/28 00:15:26;;;;;;;17.55;8.28;;;;;;;22.24;48.32;100096.96;1749567;82;21045;-65
2022/08/28 00:17:53;;;;;;;14.43;7.25;;;;;;;22.23;48.63;100092.66;1709557;82;21063;-66
2022/08/28 00:20:20;;;;;;;19.02;8.03;;;;;;;22.20;48.58;100095.73;1743353;80;21062;-65
2022/08/28 00:22:48;;;;;;;15.23;8.15;;;;;;;22.19;48.70;100092.73;1750458;81;21381;-66
2022/08/28 00:25:15;;;;;;;18.92;8.68;;;;;;;22.16;48.74;100083.27;1712031;82;21031;-66
2022/08/28 00:27:54;;;;;;;17.95;7.22;;;;;;;22.15;48.97;100079.45;1746446;82;21542;-66
2022/08/28 00:30:28;;;;;;;18.45;7.58;;;;;;;22.14;48.86;100079.98;1740496;80;20999;-66
2022/08/28 00:32:58;;;;;;;13.88;7.78;;;;;;;22.12;48.74;100082.55;1697028;83;21032;-66
2022/08/28 00:35:25;;;;;;;19.02;8.00;;;;;;;22.07;48.78;100081.32;1734589;81;21069;-66
2022/08/28 00:37:53;;;;;;;17.92;6.95;;;;;;;22.02;48.63;100074.91;1700882;82;21016;-66
2022/08/28 00:40:21;;;;;;;19.92;7.22;;;;;;;21.98;48.67;100079.05;1738024;81;21042;-65
2022/08/28 00:42:47;;;;;;;15.03;6.72;;;;;;;21.92;48.90;100075.83;1736026;80;21121;-66
2022/08/28 00:45:17;;;;;;;19.42;7.70;;;;;;;21.90;48.88;100073.36;1736065;80;21102;-67
2022/08/28 00:47:44;;;;;;;19.40;7.42;;;;;;;21.87;48.94;100068.41;1736621;82;21187;-67
2022/08/28 00:50:16;;;;;;;11.88;6.65;;;;;;;21.86;48.97;100074.81;1702629;82;21098;-66
2022/08/28 00:52:49;;;;;;;18.92;7.47;;;;;;;21.87;49.03;100073.27;1720500;82;21125;-65
2022/08/28 00:55:19;;;;;;;14.98;7.55;;;;;;;21.89;49.06;100078.42;1736326;80;21129;-64
2022/08/28 00:57:55;;;;;;;17.25;6.67;;;;;;;21.91;49.02;100078.22;1736730;80;21079;-66
2022/08/28 01:00:34;;;;;;;13.65;6.53;;;;;;;21.91;48.92;100071.00;1702259;82;21769;-66
2022/08/28 01:03:01;;;;;;;21.02;6.65;;;;;;;21.88;48.93;100061.50;1735512;81;21494;-67
2022/08/28 01:05:28;;;;;;;18.73;6.95;;;;;;;21.86;49.17;100055.54;1702327;82;21082;-66
2022/08/28 01:07:57;;;;;;;18.00;6.10;;;;;;;21.84;49.74;100048.75;1732652;82;21077;-65
2022/08/28 01:10:26;;;;;;;12.63;5.95;;;;;;;21.81;49.96;100037.92;1702173;82;21046;-66
2022/08/28 01:12:53;;;;;;;19.20;7.60;;;;;;;21.83;50.38;100037.72;1718823;81;21105;-66
2022/08/28 01:15:24;;;;;;;17.00;7.03;;;;;;;21.80;50.08;100034.11;1685520;83;21086;-66
2022/08/28 01:17:55;;;;;;;21.85;7.20;;;;;;;21.77;50.33;100028.66;1703449;84;21091;-66
2022/08/28 01:20:28;;;;;;;15.05;6.55;;;;;;;21.78;50.78;100018.77;1736252;80;21118;-67
2022/08/28 01:23:28;;;;;;;13.40;6.17;;;;;;;21.79;51.03;100013.73;1730542;82;21054;-66
2022/08/28 01:25:54;;;;;;;16.57;6.45;;;;;;;21.79;51.33;100025.26;1740013;81;21084;-65
2022/08/28 01:28:21;;;;;;;17.20;6.00;;;;;;;21.71;51.25;100021.44;1681909;82;21095;-66
2022/08/28 01:30:48;;;;;;;17.32;6.33;;;;;;;21.64;51.29;100020.09;1737511;81;21090;-67
2022/08/28 01:33:15;;;;;;;19.17;5.65;;;;;;;21.60;51.46;100010.83;1703955;83;21074;-66
2022/08/28 01:35:44;;;;;;;20.50;6.85;;;;;;;21.55;51.79;99998.55;1734958;80;21054;-66
2022/08/28 01:38:10;;;;;;;20.62;5.83;;;;;;;21.53;51.53;99993.91;1704488;83;21089;-66
2022/08/28 01:40:41;;;;;;;16.73;6.60;;;;;;;21.55;51.66;99993.72;1737601;81;21051;-66
2022/08/28 01:43:15;;;;;;;14.10;5.67;;;;;;;21.58;51.70;99994.13;1736635;80;21110;-66
2022/08/28 01:45:46;;;;;;;16.87;6.25;;;;;;;21.61;51.39;99984.35;1736543;81;21059;-66
2022/08/28 01:48:14;;;;;;;21.25;7.37;;;;;;;21.66;51.17;99988.58;1701935;84;21114;-64
2022/08/28 01:50:41;;;;;;;18.37;6.65;;;;;;;21.70;51.15;99985.81;1736424;80;21832;-66
2022/08/28 01:53:08;;;;;;;13.43;5.90;;;;;;;21.73;51.17;99979.73;1736696;81;21597;-65
2022/08/28 01:55:35;;;;;;;14.70;5.70;;;;;;;21.74;50.61;99970.16;1737254;80;21098;-66
2022/08/28 01:58:05;;;;;;;19.62;6.15;;;;;;;21.75;50.24;99973.13;1735180;81;21059;-66
2022/08/28 02:00:32;;;;;;;14.50;5.72;;;;;;;21.74;50.36;99974.66;1721287;80;21386;-66
2022/08/28 02:02:59;;;;;;;19.15;5.92;;;;;;;21.73;50.46;99976.53;1736499;80;22178;-67
2022/08/28 02:05:29;;;;;;;19.02;6.15;;;;;;;21.75;50.57;99973.65;1741003;80;21538;-67
2022/08/28 02:07:56;;;;;;;14.13;5.87;;;;;;;21.77;50.65;99975.59;1732958;80;20999;-66
2022/08/28 02:10:25;;;;;;;11.90;5.35;;;;;;;21.75;50.78;99981.16;1703143;83;21012;-65
2022/08/28 02:12:54;;;;;;;14.53;5.05;;;;;;;21.74;50.57;99983.55;1736728;81;21034;-66
2022/08/28 02:15:24;;;;;;;20.72;6.30;;;;;;;21.76;50.86;99988.70;1699946;82;21201;-66
2022/08/28 02:17:51;;;;;;;18.52;5.90;;;;;;;21.78;51.05;99986.63;1733684;81;21582;-66
2022/08/28 02:20:18;;;;;;;14.85;5.85;;;;;;;21.81;51.09;99987.56;1726463;81;21066;-65
2022/08/28 02:22:46;;;;;;;15.35;5.53;;;;;;;21.84;50.79;99985.81;1709090;82;21087;-65
2022/08/28 02:25:13;;;;;;;12.25;5.20;;;;;;;21.85;50.20;99985.58;1736702;81;21099;-66
2022/08/28 02:27:40;;;;;;;11.38;5.00;;;;;;;21.86;50.02;99990.45;1727301;80;21198;-65
2022/08/28 02:30:08;;;;;;;17.90;5.53;;;;;;;21.85;49.97;99990.94;1720532;82;21049;-66
2022/08/28 02:32:35;;;;;;;18.12;5.30;;;;;;;21.87;49.80;99992.92;1724422;82;21061;-66
2022/08/28 02:35:03;;;;;;;12.28;5.10;;;;;;;21.88;49.82;99991.05;1708452;82;21608;-66
2022/08/28 02:37:30;;;;;;;17.00;6.65;;;;;;;21.89;49.92;99994.05;1726433;82;21074;-65
2022/08/28 02:39:57;;;;;;;15.98;5.97;;;;;;;21.87;49.85;99992.92;1718353;82;21186;-64
2022/08/28 02:42:23;;;;;;;14.65;6.15;;;;;;;21.88;49.90;99997.75;1735966;82;21100;-66
2022/08/28 02:44:50;;;;;;;14.55;6.42;;;;;;;21.89;50.11;99994.05;1738170;81;20992;-66
2022/08/28 02:47:17;;;;;;;18.23;6.08;;;;;;;21.90;49.98;99995.68;1739409;80;21531;-65
2022/08/28 02:49:43;;;;;;;16.73;6.05;;;;;;;21.89;49.81;100004.77;1721568;82;21090;-66
2022/08/28 02:52:10;;;;;;;16.95;6.42;;;;;;;21.92;49.78;100005.67;1713904;82;21257;-65
2022/08/28 02:54:38;;;;;;;13.18;6.33;;;;;;;21.94;50.37;100008.98;1736874;81;21114;-64
2022/08/28 02:57:07;;;;;;;21.12;7.25;;;;;;;21.97;50.85;100009.08;1734505;81;21062;-65
2022/08/28 02:59:37;;;;;;;17.32;5.85;;;;;;;22.00;50.98;100023.40;1737783;81;21110;-65
2022/08/28 03:02:05;;;;;;;13.58;5.70;;;;;;;22.01;51.38;100026.40;1737707;80;22281;-66
2022/08/28 03:04:36;;;;;;;13.45;5.72;;;;;;;22.04;51.37;100029.98;1706400;82;21124;-66
2022/08/28 03:07:03;;;;;;;14.25;5.47;;;;;;;22.05;51.64;100032.98;1733224;80;20996;-66
2022/08/28 03:09:30;;;;;;;16.23;5.97;;;;;;;22.05;51.61;100041.83;1692291;82;21120;-64
2022/08/28 03:11:58;;;;;;;16.02;5.87;;;;;;;22.06;51.45;100043.48;1739270;81;21121;-66
2022/08/28 03:14:25;;;;;;;16.20;5.40;;;;;;;22.04;51.75;100042.88;1702913;82;21038;-66
2022/08/28 03:16:51;;;;;;;18.35;6.58;;;;;;;22.05;51.89;100044.51;1703750;83;21305;-66
2022/08/28 03:19:18;;;;;;;17.15;6.03;;;;;;;22.06;51.72;100052.87;1737502;80;21080;-65
2022/08/28 03:21:44;;;;;;;16.48;5.65;;;;;;;22.08;51.92;100064.20;1738573;80;21558;-63
2022/08/28 03:24:11;;;;;;;13.72;6.03;;;;;;;22.11;52.08;100070.16;1722016;80;21043;-64
2022/08/28 03:26:37;;;;;;;18.70;5.78;;;;;;;22.10;52.43;100065.86;1738624;81;21060;-62
2022/08/28 03:29:04;;;;;;;12.70;6.22;;;;;;;22.06;52.76;100066.27;1738855;80;21217;-63
2022/08/28 03:31:32;;;;;;;15.03;6.67;;;;;;;22.03;53.43;100065.33;1704834;82;21125;-61
2022/08/28 03:33:59;;;;;;;12.80;6.05;;;;;;;21.97;53.62;100069.34;1739008;80;21070;-60
2022/08/28 03:36:27;;;;;;;14.50;6.67;;;;;;;21.90;54.27;100072.02;1751009;80;21587;-62
2022/08/28 03:38:55;;;;;;;16.87;6.33;;;;;;;21.82;55.03;100068.19;1711383;82;21460;-62
2022/08/28 03:41:23;;;;;;;15.35;5.92;;;;;;;21.74;55.30;100071.91;1713827;82;21236;-65
2022/08/28 03:46:01;;;;;;;15.83;6.53;;;;;;;21.73;55.37;100061.40;1777759;78;22850;-66
2022/08/28 03:48:30;;;;;;;23.07;6.90;;;;;;;21.69;55.62;100063.14;1726192;82;20983;-66
2022/08/28 03:50:57;;;;;;;22.35;6.50;;;;;;;21.60;55.79;100061.70;1749974;80;21795;-64
2022/08/28 03:53:26;;;;;;;15.63;6.25;;;;;;;21.54;55.79;100064.36;1722821;81;21636;-67
2022/08/28 03:55:53;;;;;;;25.57;7.95;;;;;;;21.49;55.60;100056.93;1702417;82;21041;-67
2022/08/28 03:58:19;;;;;;;17.82;8.45;;;;;;;21.46;55.90;100059.98;1713286;81;21066;-67
2022/08/28 04:00:46;;;;;;;14.65;7.05;;;;;;;21.44;56.36;100065.53;1692964;82;21673;-67
2022/08/28 04:03:12;;;;;;;14.93;5.67;;;;;;;21.46;56.63;100068.00;1680493;85;21291;-67
2022/08/28 04:05:40;;;;;;;13.35;5.17;;;;;;;21.54;56.62;100078.56;1698747;82;21059;-67
2022/08/28 04:08:08;;;;;;;18.35;6.47;;;;;;;21.63;56.71;100073.31;1695958;82;21559;-67
2022/08/28 04:10:35;;;;;;;11.28;5.78;;;;;;;21.72;56.70;100071.30;1696192;81;21065;-67
2022/08/28 04:13:02;;;;;;;14.47;6.78;;;;;;;21.75;56.67;100074.06;1694531;83;21057;-67
2022/08/28 04:15:30;;;;;;;16.30;6.42;;;;;;;21.80;56.48;100073.75;1709245;81;21553;-67
2022/08/28 04:17:56;;;;;;;12.63;6.47;;;;;;;21.86;56.33;100072.13;1721155;83;21062;-67
2022/08/28 04:20:23;;;;;;;15.88;6.50;;;;;;;21.91;56.42;100062.97;1719888;81;21136;-67
2022/08/28 04:22:50;;;;;;;10.93;6.28;;;;;;;21.95;56.86;100052.14;1712620;82;21116;-67
2022/08/28 04:25:16;;;;;;;18.42;6.80;;;;;;;21.97;57.44;100051.44;1709464;82;21474;-68
2022/08/28 04:27:43;;;;;;;15.75;6.85;;;;;;;22.00;57.88;100049.66;1704933;83;21230;-67
2022/08/28 04:30:11;;;;;;;15.63;6.10;;;;;;;22.01;58.00;100050.51;1689642;82;21028;-67
2022/08/28 04:32:37;;;;;;;18.05;6.47;;;;;;;22.04;58.00;100050.07;1682888;84;21577;-67
2022/08/28 04:35:05;;;;;;;17.87;6.67;;;;;;;22.11;57.98;100048.73;1715877;81;21538;-68
2022/08/28 04:37:32;;;;;;;16.35;6.50;;;;;;;22.17;58.11;100045.23;1722245;83;21046;-67
2022/08/28 04:39:59;;;;;;;14.80;6.03;;;;;;;22.20;58.20;100038.13;1717960;81;21251;-68
2022/08/28 04:42:25;;;;;;;17.32;7.03;;;;;;;22.25;58.19;100036.45;1706859;83;21733;-67
2022/08/28 04:45:00;;;;;;;17.85;6.45;;;;;;;22.34;58.38;100041.14;1697214;82;21003;-67
2022/08/28 04:47:26;;;;;;;18.62;6.60;;;;;;;22.37;58.14;100036.68;1681166;83;21565;-67
2022/08/28 04:49:54;;;;;;;16.93;7.90;;;;;;;22.39;57.96;100027.94;1731607;80;21063;-66
2022/08/28 04:52:21;;;;;;;16.55;7.83;;;;;;;22.40;57.70;100030.91;1740367;80;21076;-67
2022/08/28 04:54:48;;;;;;;17.98;8.20;;;;;;;22.35;57.28;100033.92;1736277;80;21512;-67
2022/08/28 04:57:15;;;;;;;18.07;8.83;;;;;;;22.28;57.33;100033.08;1745638;81;21106;-67
2022/08/28 04:59:43;;;;;;;16.52;7.67;;;;;;;22.26;57.54;100034.63;1740975;80;21141;-67
2022/08/28 05:02:10;;;;;;;17.57;7.12;;;;;;;22.20;57.58;100027.41;1749240;82;21607;-67
2022/08/28 05:04:37;;;;;;;15.43;6.35;;;;;;;22.14;58.01;100028.22;1709341;82;21259;-67
2022/08/28 05:07:04;;;;;;;14.95;6.78;;;;;;;22.12;58.23;100033.79;1707359;83;21074;-67
2022/08/28 05:09:30;;;;;;;14.05;6.80;;;;;;;22.20;58.27;100036.78;1717389;82;21072;-67
2022/08/28 05:12:03;;;;;;;15.35;7.92;;;;;;;22.26;58.46;100046.69;1708308;82;21358;-67
2022/08/28 05:14:31;;;;;;;18.57;7.65;;;;;;;22.33;58.79;100056.09;1699315;82;21072;-67
2022/08/28 05:16:58;;;;;;;18.95;7.42;;;;;;;22.39;59.03;100069.48;1705694;82;21258;-67
2022/08/28 05:19:25;;;;;;;16.97;8.08;;;;;;;22.41;59.04;100070.09;1695465;83;21076;-66
2022/08/28 05:21:52;;;;;;;13.98;7.70;;;;;;;22.43;59.20;100059.16;1703190;82;21038;-67
2022/08/28 05:24:19;;;;;;;18.62;7.78;;;;;;;22.45;59.29;100058.44;1705318;83;21028;-67
2022/08/28 05:26:45;;;;;;;16.48;8.08;;;;;;;22.47;59.11;100053.68;1700005;82;21064;-67
2022/08/28 05:29:12;;;;;;;15.03;8.58;;;;;;;22.47;58.72;100054.20;1701367;83;21160;-67
2022/08/28 05:31:40;;;;;;;19.70;8.18;;;;;;;22.47;58.70;100058.23;1703980;82;21029;-67
2022/08/28 05:34:07;;;;;;;23.83;7.60;;;;;;;22.47;58.97;100064.92;1690149;83;21101;-67
2022/08/28 05:36:35;;;;;;;16.17;7.50;;;;;;;22.49;59.04;100060.17;1695051;82;21071;-67
2022/08/28 05:39:05;;;;;;;18.48;7.75;;;;;;;22.56;58.93;100056.46;1703816;82;21094;-66
2022/08/28 05:41:32;;;;;;;19.42;7.87;;;;;;;22.59;58.79;100054.70;1697179;83;21258;-65
2022/08/28 05:44:02;;;;;;;22.52;8.08;;;;;;;22.61;59.35;100062.52;1703361;82;21114;-65
2022/08/28 05:46:30;;;;;;;20.35;7.37;;;;;;;22.63;59.83;100065.30;1687492;82;21059;-65
2022/08/28 05:48:59;;;;;;;18.55;8.23;;;;;;;22.62;59.89;100072.22;1698881;82;21072;-67
2022/08/28 05:51:25;;;;;;;16.17;7.92;;;;;;;22.59;59.94;100074.81;1682476;82;21040;-66
2022/08/28 05:53:52;;;;;;;17.10;7.97;;;;;;;22.57;60.36;100073.36;1686686;84;21142;-67
2022/08/28 05:56:23;;;;;;;16.90;8.10;;;;;;;22.57;60.23;100068.81;1696005;82;21063;-67
2022/08/28 05:58:50;;;;;;;19.35;7.92;;;;;;;22.57;60.17;100070.16;1688725;82;21530;-67
2022/08/28 06:01:20;;;;;;;16.90;7.20;;;;;;;22.59;60.53;100062.75;1687603;83;21097;-67
2022/08/28 06:04:02;;;;;;;20.43;8.75;;;;;;;22.68;60.32;100062.50;1693738;83;21598;-66
2022/08/28 06:06:33;;;;;;;18.45;7.37;;;;;;;22.74;60.95;100060.33;1706946;82;21137;-66
2022/08/28 06:09:04;;;;;;;18.05;8.78;;;;;;;22.78;60.67;100061.57;1695700;84;21040;-67
2022/08/28 06:11:31;;;;;;;19.25;7.62;;;;;;;22.84;60.50;100070.09;1682929;82;21051;-66
2022/08/28 06:14:00;;;;;;;20.45;8.85;;;;;;;22.88;60.86;100074.02;1684446;82;21142;-66
2022/08/28 06:16:29;;;;;;;22.17;8.95;;;;;;;22.94;60.63;100080.38;1690144;82;21071;-67
2022/08/28 06:18:56;;;;;;;18.65;8.95;;;;;;;22.95;60.58;100080.70;1680384;85;21136;-66
2022/08/28 06:21:23;;;;;;;19.65;7.92;;;;;;;22.99;60.48;100080.57;1692504;82;21003;-66
2022/08/28 06:23:50;;;;;;;17.37;8.55;;;;;;;23.05;60.66;100081.58;1685613;84;21099;-66
2022/08/28 06:26:17;;;;;;;16.37;8.15;;;;;;;23.08;60.58;100088.73;1698621;82;21023;-67
2022/08/28 06:28:44;;;;;;;15.45;8.60;;;;;;;23.08;60.89;100092.77;1705516;82;21134;-66
2022/08/28 06:31:11;;;;;;;16.23;8.80;;;;;;;23.07;61.01;100092.45;1691324;82;21253;-66
2022/08/28 06:33:37;;;;;;;19.25;7.95;;;;;;;23.09;61.16;100094.92;1696282;82;21020;-67
2022/08/28 06:36:06;;;;;;;16.42;8.85;;;;;;;23.07;61.17;100095.13;1705345;82;21357;-67
2022/08/28 06:38:33;;;;;;;18.85;8.25;;;;;;;23.05;61.13;100095.83;1692646;84;21075;-65
2022/08/28 06:40:59;;;;;;;16.82;7.90;;;;;;;23.05;61.24;100099.86;1685124;82;21557;-67
2022/08/28 06:43:27;;;;;;;16.85;7.40;;;;;;;23.09;61.61;100100.28;1682062;84;21243;-66
2022/08/28 06:45:55;;;;;;;18.87;8.85;;;;;;;23.10;61.51;100101.42;1724948;80;21098;-67
2022/08/28 06:48:26;;;;;;;18.10;8.15;;;;;;;23.09;61.73;100097.60;1748955;80;21051;-67
2022/08/28 06:50:53;;;;;;;16.52;7.70;;;;;;;23.07;61.62;100101.02;1709967;82;21527;-66
2022/08/28 06:53:23;;;;;;;18.95;8.48;;;;;;;23.06;61.42;100102.86;1705096;82;21491;-67
2022/08/28 06:56:08;;;;;;;12.98;7.58;;;;;;;23.05;61.37;100101.70;1706291;82;21286;-68
2022/08/28 06:58:41;;;;;;;17.27;8.00;;;;;;;23.04;61.58;100098.73;1695405;82;21109;-68
2022/08/28 07:01:12;;;;;;;20.82;8.95;;;;;;;23.00;61.42;100102.36;1712454;82;21339;-67
2022/08/28 07:03:39;;;;;;;16.57;7.17;;;;;;;23.02;61.44;100107.52;1696869;82;21069;-66
2022/08/28 07:06:07;;;;;;;16.15;7.87;;;;;;;23.09;61.54;100102.44;1702481;82;21041;-66
2022/08/28 07:08:34;;;;;;;16.17;7.67;;;;;;;23.17;61.54;100109.45;1707627;83;21773;-67
2022/08/28 07:11:27;;;;;;;17.45;7.30;;;;;;;23.21;61.46;100108.50;1711734;82;21604;-67
2022/08/28 07:13:54;;;;;;;13.78;7.67;;;;;;;23.24;61.39;100110.77;1708865;82;21030;-67
2022/08/28 07:16:26;;;;;;;15.15;7.50;;;;;;;23.23;61.05;100107.23;1704818;82;21101;-67
2022/08/28 07:18:54;;;;;;;19.80;8.05;;;;;;;23.21;61.20;100108.50;1695805;82;21149;-67
2022/08/28 07:21:20;;;;;;;12.33;7.55;;;;;;;23.21;61.21;100105.81;1695846;82;21144;-68
2022/08/28 07:23:47;;;;;;;15.03;7.22;;;;;;;23.25;61.24;100103.00;1693107;83;21335;-66
2022/08/28 07:26:18;;;;;;;20.90;8.48;;;;;;;23.32;60.96;100093.08;1709223;82;22236;-67
2022/08/28 07:28:46;;;;;;;18.57;8.30;;;;;;;23.47;60.46;100097.64;1683947;83;21134;-67
2022/08/28 07:31:16;;;;;;;17.07;8.18;;;;;;;23.56;60.32;100095.52;1713232;82;21063;-66
2022/08/28 07:33:43;;;;;;;17.17;8.23;;;;;;;23.63;60.16;100091.45;1694466;82;21149;-67
2022/08/28 07:36:13;;;;;;;15.90;8.88;;;;;;;23.72;59.53;100095.02;1705341;82;21042;-67
2022/08/28 07:38:40;;;;;;;20.77;9.93;;;;;;;23.81;59.29;100090.73;1700175;82;21042;-67
2022/08/28 07:41:12;;;;;;;16.12;8.75;;;;;;;23.91;59.05;100100.50;1702095;82;21093;-66
2022/08/28 07:46:24;;;;;;;17.37;8.35;;;;;;;24.07;58.55;100089.23;1697330;82;21186;-67
2022/08/28 07:48:50;;;;;;;20.70;8.15;;;;;;;24.15;58.36;100093.48;1733629;80;21028;-66
2022/08/28 07:51:17;;;;;;;16.02;8.28;;;;;;;24.21;57.68;100094.46;1730921;80;21051;-68
2022/08/28 07:53:44;;;;;;;16.48;8.15;;;;;;;24.26;57.69;100104.87;1705961;84;21121;-69
2022/08/28 07:56:10;;;;;;;18.95;8.98;;;;;;;24.32;57.49;100104.51;1698376;82;21074;-66
2022/08/28 07:58:39;;;;;;;14.98;7.80;;;;;;;24.39;57.25;100095.04;1704216;82;21268;-67
2022/08/28 08:01:06;;;;;;;18.20;8.03;;;;;;;24.43;57.22;100096.27;1722769;80;21023;-68
2022/08/28 08:03:33;;;;;;;14.93;7.65;;;;;;;24.45;57.02;100092.82;1728147;82;21091;-67
2022/08/28 08:06:02;;;;;;;15.98;7.62;;;;;;;24.48;56.91;100099.11;1727097;80;21559;-67
2022/08/28 08:08:30;;;;;;;15.05;7.72;;;;;;;24.58;56.92;100099.95;1731166;80;21456;-67
2022/08/28 08:11:01;;;;;;;17.32;8.00;;;;;;;24.65;56.63;100109.61;1711696;82;21141;-68
2022/08/28 08:13:29;;;;;;;16.65;8.33;;;;;;;24.73;56.53;100103.63;1705386;84;21026;-68
2022/08/28 08:16:13;;;;;;;17.10;8.28;;;;;;;24.84;56.26;100094.83;1698100;82;21692;-67
2022/08/28 08:18:40;;;;;;;15.80;7.83;;;;;;;24.96;55.75;100091.67;1706166;84;20995;-68
2022/08/28 08:21:10;;;;;;;14.73;7.20;;;;;;;25.03;55.47;100094.30;1707821;82;21087;-68
2022/08/28 08:23:37;;;;;;;18.82;7.83;;;;;;;25.07;55.34;100090.12;1699071;83;21129;-68
2022/08/28 08:26:08;;;;;;;12.00;7.37;;;;;;;25.10;54.60;100089.67;1718758;80;21102;-68
2022/08/28 08:28:36;;;;;;;14.68;7.17;;;;;;;25.12;55.10;100081.37;1722175;80;21467;-67
2022/08/28 08:31:14;;;;;;;16.93;7.55;;;;;;;25.12;55.54;100077.34;1721734;80;21113;-68
2022/08/28 08:33:50;;;;;;;14.98;6.20;;;;;;;25.13;55.13;100076.27;1716695;82;21023;-68
2022/08/28 08:36:19;;;;;;;14.05;6.80;;;;;;;25.10;53.77;100075.38;1721993;80;21062;-68
2022/08/28 08:38:46;;;;;;;22.82;7.00;;;;;;;25.09;53.71;100073.75;1730329;80;21086;-69
2022/08/28 08:41:31;;;;;;;14.15;6.78;;;;;;;25.13;53.52;100081.15;1695214;82;21071;-68
2022/08/28 08:44:18;;;;;;;15.18;5.90;;;;;;;25.14;53.45;100075.23;1699488;83;21077;-68
2022/08/28 08:46:56;;;;;;;15.03;6.75;;;;;;;25.17;52.33;100073.44;1697786;82;21082;-69
2022/08/28 08:49:25;;;;;;;15.68;5.95;;;;;;;25.18;51.36;100073.22;1700130;83;21155;-69
2022/08/28 08:52:12;;;;;;;21.15;6.65;;;;;;;25.22;50.57;100059.58;1700888;82;21058;-69
2022/08/28 08:54:42;;;;;;;11.55;5.25;;;;;;;25.27;50.07;100065.67;1731958;80;21012;-67
2022/08/28 08:57:11;;;;;;;18.15;6.10;;;;;;;25.34;50.34;100069.62;1724199;80;21483;-68
2022/08/28 08:59:38;;;;;;;12.88;5.90;;;;;;;25.41;50.12;100069.00;1717734;82;21331;-68
2022/08/28 09:02:13;;;;;;;20.90;6.50;;;;;;;25.48;49.21;100067.56;1716000;80;21547;-68
2022/08/28 09:04:53;;;;;;;14.13;5.07;;;;;;;25.53;47.70;100069.85;1714071;82;21004;-68
2022/08/28 09:07:28;;;;;;;12.98;5.10;;;;;;;25.54;47.65;100066.12;1697412;82;22284;-69
2022/08/28 09:09:56;;;;;;;15.70;5.87;;;;;;;25.50;47.18;100061.41;1678342;83;21050;-69
2022/08/28 09:12:29;;;;;;;19.82;5.70;;;;;;;25.50;47.59;100068.14;1705032;83;21710;-68
2022/08/28 09:15:08;;;;;;;21.33;5.78;;;;;;;25.56;47.44;100063.20;1693624;82;21537;-68
2022/08/28 09:17:43;;;;;;;14.45;5.70;;;;;;;25.65;47.46;100065.84;1715684;81;20992;-68
2022/08/28 09:20:12;;;;;;;16.35;5.12;;;;;;;25.67;45.40;100067.80;1733787;82;21082;-67
2022/08/28 09:22:43;;;;;;;15.03;6.95;;;;;;;25.67;45.85;100065.11;1734544;80;21708;-67
2022/08/28 09:25:11;;;;;;;12.68;5.78;;;;;;;25.76;46.22;100066.94;1734057;80;21114;-67
2022/08/28 09:27:52;;;;;;;20.90;6.78;;;;;;;25.82;43.94;100063.30;1701710;82;22118;-68
2022/08/28 09:30:17;;;;;;;19.23;5.83;;;;;;;25.82;43.17;100062.49;1687277;84;21340;-67
2022/08/28 09:32:48;;;;;;;18.57;5.75;;;;;;;25.88;43.00;100062.39;1654757;84;21161;-69
2022/08/28 09:35:26;;;;;;;25.88;6.90;;;;;;;25.96;43.02;100070.70;1698629;82;21625;-68
2022/08/28 09:37:53;;;;;;;15.90;6.20;;;;;;;26.00;42.63;100071.88;1703044;82;21083;-69
2022/08/28 09:43:25;;;;;;;20.72;6.20;;;;;;;26.04;42.44;100063.63;1701781;82;21941;-69
2022/08/28 09:43:27;;;;;;;23.12;6.90;;;;;;;26.09;42.57;100060.22;1698513;84;21169;-69
2022/08/28 09:46:08;;;;;;;16.17;6.28;;;;;;;26.14;42.86;100061.68;1740518;81;21046;-69
2022/08/28 09:48:42;;;;;;;27.75;6.78;;;;;;;26.19;43.16;100060.98;1746675;80;21007;-69
2022/08/28 09:51:22;;;;;;;20.95;6.60;;;;;;;26.23;42.67;100063.53;1744536;80;21096;-69
2022/08/28 09:53:58;;;;;;;17.77;6.53;;;;;;;26.31;42.91;100063.99;1751623;81;21145;-68
2022/08/28 09:56:31;;;;;;;;;;;;;;;26.40;43.09;100064.45;1752635;80;21509;-69
2022/08/28 09:59:10;;;;;;;18.57;5.85;;;;;;;26.48;43.14;100060.05;1752810;80;20468;-67
2022/08/28 10:02:10;;;;;;;14.25;5.40;;;;;;;26.54;43.43;100060.97;1753328;80;21113;-67
2022/08/28 10:05:08;;;;;;;17.45;5.75;;;;;;;26.61;42.68;100062.20;1754388;81;21054;-66
2022/08/28 10:07:56;;;;;;;15.18;5.35;;;;;;;26.66;42.72;100057.78;1745968;80;21730;-69
2022/08/28 10:10:35;;;;;;;13.20;4.80;;;;;;;26.72;41.74;100054.66;1750753;81;21036;-65
2022/08/28 10:13:18;;;;;;;15.18;5.28;;;;;;;26.77;41.53;100050.71;1708356;82;21101;-67
2022/08/28 10:16:12;;;;;;;11.05;4.85;;;;;;;26.81;40.31;100049.70;1709581;82;21062;-66
2022/08/28 10:19:03;;;;;;;13.83;5.42;;;;;;;26.85;39.75;100043.59;1719660;83;21112;-68
2022/08/28 10:22:08;;;;;;;11.40;4.80;;;;;;;26.94;37.49;100044.57;1719062;82;21275;-68
2022/08/28 10:25:14;;;;;;;13.43;4.55;;;;;;;27.01;38.21;100042.01;1716920;82;21524;-66
2022/08/28 10:27:56;;;;;;;14.47;5.30;;;;;;;27.10;37.99;100040.28;1708775;82;21082;-69
2022/08/28 10:30:23;;;;;;;21.20;5.53;;;;;;;27.15;37.73;100030.41;1712672;82;21049;-67
2022/08/28 10:33:27;;;;;;;13.05;5.37;;;;;;;27.21;38.84;100027.27;1711407;82;21510;-68
2022/08/28 10:36:14;;;;;;;12.35;5.25;;;;;;;27.29;39.01;100031.50;1690148;84;21198;-67
2022/08/28 10:38:46;;;;;;;17.73;6.08;;;;;;;27.39;39.24;100028.98;1725499;82;21065;-65
2022/08/28 10:41:48;;;;;;;15.98;5.67;;;;;;;27.48;37.93;100021.30;1725334;82;20998;-65
2022/08/28 10:44:20;;;;;;;14.23;5.80;;;;;;;27.55;37.51;100018.71;1716575;82;21014;-67
2022/08/28 10:46:52;;;;;;;11.22;5.50;;;;;;;27.59;37.79;100017.72;1716727;82;21529;-66
2022/08/28 10:49:36;;;;;;;12.13;5.40;;;;;;;27.64;38.13;100016.96;1702868;83;21514;-67
2022/08/28 10:52:13;;;;;;;14.75;5.20;;;;;;;27.69;38.25;100011.64;1704994;82;21085;-68
2022/08/28 10:54:51;;;;;;;22.02;6.15;;;;;;;27.78;38.04;100011.53;1741164;82;21061;-69
2022/08/28 10:57:45;;;;;;;11.95;5.72;;;;;;;27.88;38.53;100023.05;1739116;80;21063;-66
2022/08/28 11:00:17;;;;;;;16.95;6.78;;;;;;;27.97;38.00;100023.78;1721983;80;21052;-68
2022/08/28 11:02:48;;;;;;;13.68;5.72;;;;;;;28.04;37.54;100025.47;1736059;80;22238;-66
2022/08/28 11:05:22;;;;;;;18.95;5.97;;;;;;;28.12;37.94;100023.16;1735758;80;21060;-67
2022/08/28 11:07:53;;;;;;;11.90;5.47;;;;;;;28.20;37.28;100017.06;1734832;80;21061;-67
2022/08/28 11:10:26;;;;;;;13.35;5.37;;;;;;;28.26;38.30;100022.30;1734138;82;21047;-65
2022/08/28 11:12:52;;;;;;;16.40;5.60;;;;;;;28.35;37.81;100026.75;1734027;80;22307;-67
2022/08/28 11:15:35;;;;;;;12.50;5.42;;;;;;;28.44;37.11;100021.17;1737202;82;21239;-64
2022/08/28 11:18:19;;;;;;;18.00;6.30;;;;;;;28.54;36.37;100024.02;1697880;82;21038;-64
2022/08/28 11:21:25;;;;;;;10.78;5.30;;;;;;;28.61;36.12;100014.38;1699983;84;21482;-66
2022/08/28 11:24:05;;;;;;;;;;;;;;;28.67;37.02;100015.28;1704726;82;21325;-65
2022/08/28 11:26:52;;;;;;;16.75;5.92;;;;;;;28.78;37.45;100024.34;1673348;83;20251;-64
2022/08/28 11:30:10;;;;;;;14.28;5.92;;;;;;;28.81;36.25;100014.36;1741759;81;21258;-64
2022/08/28 11:32:55;;;;;;;13.22;5.50;;;;;;;28.82;36.32;100014.66;1736141;80;21075;-64
2022/08/28 11:35:43;;;;;;;11.00;5.45;;;;;;;28.83;35.71;100017.63;1735339;80;22325;-63
2022/08/28 11:38:11;;;;;;;11.70;6.22;;;;;;;28.83;35.95;100019.82;1732875;80;21069;-64
2022/08/28 11:40:52;;;;;;;17.25;5.33;;;;;;;28.82;35.15;100025.48;1707122;83;21063;-65
2022/08/28 11:43:24;;;;;;;12.75;5.30;;;;;;;28.81;35.45;100021.13;1733001;81;21107;-66